createdAt,value
2022-09-15T00:01:22.894Z,22.90
2022-09-15T00:03:51.310Z,23.10
2022-09-15T00:06:20.243Z,23.20
2022-09-15T00:08:48.504Z,23.20
2022-09-15T00:11:27.925Z,22.80
2022-09-15T00:13:57.555Z,22.20
2022-09-15T00:16:27.577Z,22.00
2022-09-15T00:18:56.182Z,21.90
2022-09-15T00:21:29.174Z,22.20
2022-09-15T00:23:57.895Z,22.50
2022-09-15T00:26:28.529Z,22.70
2022-09-15T00:28:58.655Z,22.80
2022-09-15T00:31:28.323Z,22.90
2022-09-15T00:33:58.928Z,23.00
2022-09-15T00:36:27.480Z,23.10
2022-09-15T00:38:56.132Z,23.20
2022-09-15T00:41:24.684Z,23.20
2022-09-15T00:43:59.066Z,22.80
2022-09-15T00:46:32.497Z,22.30
2022-09-15T00:49:06.841Z,22.00
2022-09-15T00:51:41.846Z,21.90
2022-09-15T00:54:18.331Z,22.00
2022-09-15T00:56:50.413Z,22.30
2022-09-15T00:59:22.100Z,22.50
2022-09-15T01:01:59.073Z,22.70
2022-09-15T01:04:27.679Z,22.80
2022-09-15T01:07:00.148Z,22.90
2022-09-15T01:09:35.789Z,23.00
2022-09-15T01:12:05.008Z,23.10
2022-09-15T01:14:33.089Z,23.20
2022-09-15T01:17:21.456Z,22.80
2022-09-15T01:20:08.311Z,22.20
2022-09-15T01:22:51.071Z,22.00
2022-09-15T01:25:56.286Z,21.90
2022-09-15T01:28:36.536Z,22.30
2022-09-15T01:31:16.909Z,22.50
2022-09-15T01:33:58.249Z,22.70
2022-09-15T01:36:50.730Z,22.80
2022-09-15T01:39:26.981Z,22.80
2022-09-15T01:42:07.803Z,23.00
2022-09-15T01:44:45.308Z,23.10
2022-09-15T01:47:16.330Z,23.20
2022-09-15T01:50:06.457Z,22.80
2022-09-15T01:52:35.075Z,22.20
2022-09-15T01:55:10.673Z,21.90
2022-09-15T01:57:38.821Z,22.10
2022-09-15T02:00:07.646Z,22.40
2022-09-15T02:03:07.935Z,22.60
2022-09-15T02:05:44.583Z,22.70
2022-09-15T02:08:37.236Z,22.90
2022-09-15T02:11:17.647Z,23.00
2022-09-15T02:13:47.690Z,23.10
2022-09-15T02:16:21.147Z,23.20
2022-09-15T02:18:54.718Z,23.20
2022-09-15T02:21:28.475Z,22.60
2022-09-15T02:24:02.331Z,22.10
2022-09-15T02:26:33.637Z,21.90
2022-09-15T02:29:06.440Z,22.10
2022-09-15T02:31:37.300Z,22.40
2022-09-15T02:34:11.335Z,22.60
2022-09-15T02:36:41.637Z,22.70
2022-09-15T02:39:13.879Z,22.80
2022-09-15T02:41:42.518Z,22.90
2022-09-15T02:44:10.952Z,23.00
2022-09-15T02:46:39.174Z,23.10
2022-09-15T02:49:07.446Z,23.20
2022-09-15T02:51:35.680Z,23.20
2022-09-15T02:54:03.790Z,22.60
2022-09-15T02:56:32.011Z,22.20
2022-09-15T02:58:59.988Z,22.00
2022-09-15T03:01:30.251Z,22.00
2022-09-15T03:03:59.168Z,22.10
2022-09-15T03:06:28.388Z,22.40
2022-09-15T03:08:58.715Z,22.60
2022-09-15T03:11:28.923Z,22.70
2022-09-15T03:13:59.405Z,22.80
2022-09-15T03:16:29.671Z,22.90
2022-09-15T03:18:59.438Z,23.00
2022-09-15T03:21:29.465Z,23.10
2022-09-15T03:23:59.103Z,23.20
2022-09-15T03:26:27.312Z,23.10
2022-09-15T03:28:55.351Z,22.30
2022-09-15T03:31:23.719Z,22.10
2022-09-15T03:33:51.959Z,21.80
2022-09-15T03:36:20.292Z,22.10
2022-09-15T03:38:48.379Z,22.40
2022-09-15T03:41:16.711Z,22.60
2022-09-15T03:43:45.189Z,22.70
2022-09-15T03:46:13.503Z,22.80
2022-09-15T03:48:41.705Z,22.90
2022-09-15T03:51:11.032Z,23.00
2022-09-15T03:53:41.052Z,23.10
2022-09-15T03:56:26.233Z,23.10
2022-09-15T03:58:54.736Z,23.20
2022-09-15T04:01:22.880Z,22.80
2022-09-15T04:03:51.944Z,22.20
2022-09-15T04:06:21.746Z,22.00
2022-09-15T04:08:51.198Z,21.90
2022-09-15T04:11:20.893Z,22.10
2022-09-15T04:13:49.780Z,22.40
2022-09-15T04:16:20.419Z,22.60
2022-09-15T04:18:48.587Z,22.70
2022-09-15T04:21:21.870Z,22.80
2022-09-15T04:23:50.750Z,22.90
2022-09-15T04:26:26.665Z,23.00
2022-09-15T04:28:55.186Z,23.10
2022-09-15T04:31:23.365Z,23.20
2022-09-15T04:33:54.398Z,23.00
2022-09-15T04:36:27.307Z,22.40
2022-09-15T04:38:55.749Z,22.10
2022-09-15T04:41:24.535Z,21.90
2022-09-15T04:43:52.985Z,22.10
2022-09-15T04:46:21.458Z,22.40
2022-09-15T04:48:49.824Z,22.60
2022-09-15T04:51:20.809Z,22.70
2022-09-15T04:53:50.257Z,22.70
2022-09-15T04:56:20.769Z,22.80
2022-09-15T04:59:03.195Z,22.90
2022-09-15T05:01:35.240Z,23.00
2022-09-15T05:04:04.569Z,23.10
2022-09-15T05:06:33.743Z,23.20
2022-09-15T05:09:05.415Z,22.90
2022-09-15T05:11:39.548Z,22.30
2022-09-15T05:14:08.552Z,22.00
2022-09-15T05:16:37.102Z,21.90
2022-09-15T05:19:05.390Z,22.20
2022-09-15T05:21:35.561Z,22.40
2022-09-15T05:24:03.702Z,22.60
2022-09-15T05:26:31.931Z,22.70
2022-09-15T05:29:00.105Z,22.80
2022-09-15T05:31:32.638Z,22.90
2022-09-15T05:34:02.759Z,23.00
2022-09-15T05:36:31.535Z,23.10
2022-09-15T05:38:59.675Z,23.10
2022-09-15T05:41:29.606Z,23.20
2022-09-15T05:43:58.970Z,22.80
2022-09-15T05:46:28.086Z,22.20
2022-09-15T05:48:59.777Z,22.00
2022-09-15T05:51:28.086Z,21.90
2022-09-15T05:53:56.411Z,22.20
2022-09-15T05:56:25.025Z,22.50
2022-09-15T05:58:53.488Z,22.60
2022-09-15T06:01:26.862Z,22.70
2022-09-15T06:03:56.354Z,22.80
2022-09-15T06:06:26.175Z,22.90
2022-09-15T06:08:58.439Z,22.90
2022-09-15T06:11:31.660Z,23.00
2022-09-15T06:14:04.186Z,23.10
2022-09-15T06:16:35.484Z,23.20
2022-09-15T06:19:04.071Z,22.50
2022-09-15T06:21:33.638Z,22.10
2022-09-15T06:24:04.037Z,21.90
2022-09-15T06:26:32.186Z,22.10
2022-09-15T06:29:02.161Z,22.30
2022-09-15T06:31:32.001Z,22.50
2022-09-15T06:34:00.865Z,22.70
2022-09-15T06:36:29.822Z,22.80
2022-09-15T06:38:58.591Z,22.80
2022-09-15T06:41:26.651Z,22.90
2022-09-15T06:43:54.760Z,23.00
2022-09-15T06:46:25.336Z,23.00
2022-09-15T06:48:53.908Z,23.10
2022-09-15T06:51:24.490Z,23.20
2022-09-15T06:53:54.371Z,23.00
2022-09-15T06:56:24.004Z,22.30
2022-09-15T06:58:52.562Z,22.00
2022-09-15T07:01:38.940Z,21.90
2022-09-15T07:04:08.000Z,22.20
2022-09-15T07:06:37.906Z,22.40
2022-09-15T07:09:07.176Z,22.50
2022-09-15T07:11:35.317Z,22.70
2022-09-15T07:14:03.450Z,22.70
2022-09-15T07:16:31.866Z,22.80
2022-09-15T07:19:00.145Z,22.90
2022-09-15T07:21:28.831Z,23.00
2022-09-15T07:24:02.659Z,23.10
2022-09-15T07:26:34.566Z,23.20
2022-09-15T07:29:05.647Z,23.00
2022-09-15T07:31:36.587Z,22.40
2022-09-15T07:34:05.458Z,22.10
2022-09-15T07:36:33.551Z,22.10
2022-09-15T07:39:03.017Z,22.40
2022-09-15T07:41:32.541Z,22.60
2022-09-15T07:44:01.633Z,22.80
2022-09-15T07:46:33.900Z,22.90
2022-09-15T07:49:02.568Z,22.90
2022-09-15T07:51:30.437Z,23.00
2022-09-15T07:53:58.821Z,23.00
2022-09-15T07:56:27.007Z,23.10
2022-09-15T07:58:55.174Z,23.20
2022-09-15T08:01:23.441Z,23.20
2022-09-15T08:03:53.061Z,22.60
2022-09-15T08:06:26.477Z,22.10
2022-09-15T08:09:00.012Z,21.90
2022-09-15T08:11:29.231Z,22.10
2022-09-15T08:14:00.674Z,22.40
2022-09-15T08:16:29.198Z,22.60
2022-09-15T08:18:57.550Z,22.70
2022-09-15T08:21:25.840Z,22.90
2022-09-15T08:24:02.920Z,22.90
2022-09-15T08:26:31.335Z,22.90
2022-09-15T08:28:59.910Z,23.00
2022-09-15T08:31:28.180Z,23.10
2022-09-15T08:33:57.265Z,23.10
2022-09-15T08:36:25.545Z,23.20
2022-09-15T08:38:53.748Z,22.80
2022-09-15T08:41:37.202Z,22.20
2022-09-15T08:44:38.220Z,22.00
2022-09-15T08:47:17.889Z,21.90
2022-09-15T08:50:15.709Z,22.20
2022-09-15T08:52:54.123Z,22.50
2022-09-15T08:55:39.221Z,22.60
2022-09-15T08:58:27.748Z,22.70
2022-09-15T09:01:04.766Z,22.80
2022-09-15T09:03:57.408Z,22.90
2022-09-15T09:06:54.859Z,23.00
2022-09-15T09:09:43.054Z,23.10
2022-09-15T09:12:14.484Z,23.20
2022-09-15T09:14:57.968Z,23.20
2022-09-15T09:17:34.286Z,22.50
2022-09-15T09:20:35.336Z,22.10
2022-09-15T09:23:06.363Z,21.90
2022-09-15T09:25:34.622Z,22.20
2022-09-15T09:28:04.063Z,22.50
2022-09-15T09:30:36.004Z,22.60
2022-09-15T09:33:04.340Z,22.70
2022-09-15T09:35:47.727Z,22.80
2022-09-15T09:38:25.607Z,22.90
2022-09-15T09:40:56.516Z,22.90
2022-09-15T09:43:28.479Z,23.00
2022-09-15T09:45:56.886Z,23.10
2022-09-15T09:48:27.458Z,23.20
2022-09-15T09:50:55.840Z,23.00
2022-09-15T09:53:31.616Z,22.30
2022-09-15T09:56:38.175Z,22.20
2022-09-15T09:59:06.702Z,21.90
2022-09-15T10:01:34.977Z,22.20
2022-09-15T10:04:19.846Z,22.50
2022-09-15T10:06:48.302Z,22.70
2022-09-15T10:09:18.765Z,22.80
2022-09-15T10:11:56.185Z,22.90
2022-09-15T10:14:32.134Z,23.00
2022-09-15T10:17:24.967Z,23.00
2022-09-15T10:19:54.536Z,23.10
2022-09-15T10:22:41.518Z,23.10
2022-09-15T10:25:22.420Z,23.20
2022-09-15T10:28:09.940Z,22.70
2022-09-15T10:30:39.189Z,22.20
2022-09-15T10:33:29.089Z,22.00
2022-09-15T10:36:06.670Z,22.30
2022-09-15T10:38:55.799Z,22.50
2022-09-15T10:41:32.558Z,22.70
2022-09-15T10:44:34.546Z,22.90
2022-09-15T10:47:24.226Z,23.00
2022-09-15T10:50:22.081Z,23.10
2022-09-15T10:53:31.576Z,23.10
2022-09-15T10:56:05.570Z,23.20
2022-09-15T10:58:57.190Z,23.20
2022-09-15T11:01:31.358Z,22.60
2022-09-15T11:04:32.033Z,22.20
2022-09-15T11:07:27.564Z,22.00
2022-09-15T11:10:33.696Z,22.40
2022-09-15T11:13:27.641Z,22.60
2022-09-15T11:16:08.193Z,22.80
2022-09-15T11:19:14.922Z,23.00
2022-09-15T11:22:14.334Z,23.10
2022-09-15T11:24:59.590Z,23.10
2022-09-15T11:27:43.019Z,23.20
2022-09-15T11:30:18.968Z,23.30
2022-09-15T11:33:25.296Z,23.10
2022-09-15T11:36:13.935Z,22.40
2022-09-15T11:38:51.011Z,22.10
2022-09-15T11:41:39.460Z,22.20
2022-09-15T11:44:25.089Z,22.50
2022-09-15T11:47:07.718Z,22.80
2022-09-15T11:49:57.107Z,23.00
2022-09-15T11:53:08.934Z,23.10
2022-09-15T11:55:50.467Z,23.20
2022-09-15T11:58:55.361Z,23.20
2022-09-15T12:01:51.331Z,23.30
2022-09-15T12:04:30.706Z,22.90
2022-09-15T12:07:06.229Z,22.60
2022-09-15T12:09:35.587Z,22.40
2022-09-15T12:12:08.985Z,22.30
2022-09-15T12:14:42.743Z,22.30
2022-09-15T12:17:25.814Z,22.40
2022-09-15T12:20:04.628Z,22.50
2022-09-15T12:22:45.998Z,22.60
2022-09-15T12:25:20.474Z,22.80
2022-09-15T12:28:22.596Z,22.90
2022-09-15T12:31:11.754Z,23.10
2022-09-15T12:34:01.627Z,23.10
2022-09-15T12:36:39.565Z,23.20
2022-09-15T12:39:42.993Z,23.30
2022-09-15T12:42:23.864Z,23.10
2022-09-15T12:45:05.300Z,22.60
2022-09-15T12:47:52.607Z,22.30
2022-09-15T12:50:23.499Z,22.60
2022-09-15T12:53:02.373Z,22.90
2022-09-15T12:55:37.038Z,23.10
2022-09-15T12:58:10.883Z,23.20
2022-09-15T13:01:00.647Z,23.20
2022-09-15T13:06:25.672Z,23.40
2022-09-15T13:09:26.763Z,23.00
2022-09-15T13:11:56.650Z,22.60
2022-09-15T13:14:24.841Z,22.50
2022-09-15T13:17:20.617Z,22.30
2022-09-15T13:19:52.288Z,22.30
2022-09-15T13:22:31.655Z,22.30
2022-09-15T13:25:11.379Z,22.50
2022-09-15T13:27:56.736Z,22.80
2022-09-15T13:30:43.235Z,23.00
2022-09-15T13:35:03.236Z,23.10
2022-09-15T13:39:39.854Z,23.20
2022-09-15T13:42:17.403Z,23.40
2022-09-15T13:44:45.633Z,23.50
2022-09-15T13:47:40.984Z,22.90
2022-09-15T13:50:38.305Z,22.50
2022-09-15T13:53:34.188Z,22.40
2022-09-15T13:56:07.875Z,22.30
2022-09-15T13:59:00.948Z,22.30
2022-09-15T14:01:33.545Z,22.50
2022-09-15T14:04:11.877Z,22.70
2022-09-15T14:06:42.865Z,23.00
2022-09-15T14:09:29.679Z,23.10
2022-09-15T14:12:05.476Z,23.20
2022-09-15T14:14:39.489Z,23.20
2022-09-15T14:17:28.925Z,23.30
2022-09-15T14:20:00.026Z,23.40
2022-09-15T14:22:30.875Z,23.00
2022-09-15T14:25:01.564Z,22.60
2022-09-15T14:27:33.556Z,22.40
2022-09-15T14:30:09.665Z,22.30
2022-09-15T14:32:45.946Z,22.20
2022-09-15T14:35:20.879Z,22.40
2022-09-15T14:37:57.587Z,22.60
2022-09-15T14:40:30.310Z,22.80
2022-09-15T14:42:58.692Z,23.00
2022-09-15T14:48:28.424Z,23.20
2022-09-15T14:51:03.400Z,23.30
2022-09-15T14:53:35.591Z,23.40
2022-09-15T14:56:11.923Z,23.50
2022-09-15T14:58:46.149Z,23.20
2022-09-15T15:01:32.849Z,22.60
2022-09-15T15:04:08.975Z,22.40
2022-09-15T15:06:42.898Z,22.30
2022-09-15T15:09:23.476Z,22.30
2022-09-15T15:11:58.582Z,22.50
2022-09-15T15:14:27.208Z,22.70
2022-09-15T15:17:04.812Z,23.00
2022-09-15T15:19:34.433Z,23.10
2022-09-15T15:22:17.230Z,23.10
2022-09-15T15:24:49.141Z,23.20
2022-09-15T15:27:35.633Z,23.30
2022-09-15T15:30:25.764Z,23.40
2022-09-15T15:32:54.850Z,23.50
2022-09-15T15:35:24.077Z,22.80
2022-09-15T15:38:06.877Z,22.50
2022-09-15T15:40:37.706Z,22.30
2022-09-15T15:43:24.697Z,22.10
2022-09-15T15:45:59.333Z,22.50
2022-09-15T15:48:37.360Z,22.80
2022-09-15T15:51:06.860Z,23.00
2022-09-15T15:53:35.184Z,23.10
2022-09-15T15:56:03.718Z,23.20
2022-09-15T15:58:31.951Z,23.30
2022-09-15T16:01:00.168Z,23.30
2022-09-15T16:03:28.561Z,23.50
2022-09-15T16:06:00.661Z,23.50
2022-09-15T16:08:32.489Z,22.90
2022-09-15T16:11:02.925Z,22.50
2022-09-15T16:13:31.317Z,22.40
2022-09-15T16:16:00.810Z,22.20
2022-09-15T16:18:29.760Z,22.20
2022-09-15T16:20:57.938Z,22.20
2022-09-15T16:23:27.064Z,22.50
2022-09-15T16:26:08.638Z,22.70
2022-09-15T16:28:38.676Z,22.90
2022-09-15T16:31:09.598Z,23.00
2022-09-15T16:33:38.299Z,23.10
2022-09-15T16:36:07.086Z,23.20
2022-09-15T16:38:36.642Z,23.30
2022-09-15T16:41:11.014Z,23.40
2022-09-15T16:43:39.188Z,23.50
2022-09-15T16:46:09.303Z,22.90
2022-09-15T16:48:38.728Z,22.50
2022-09-15T16:51:23.362Z,22.30
2022-09-15T16:53:55.263Z,22.10
2022-09-15T16:56:23.311Z,22.20
2022-09-15T16:58:54.787Z,22.40
2022-09-15T17:01:25.588Z,22.70
2022-09-15T17:03:53.959Z,22.90
2022-09-15T17:06:22.455Z,23.10
2022-09-15T17:08:50.732Z,23.10
2022-09-15T17:11:20.902Z,23.20
2022-09-15T17:13:49.186Z,23.30
2022-09-15T17:16:20.119Z,23.40
2022-09-15T17:18:49.012Z,23.40
2022-09-15T17:21:18.401Z,23.00
2022-09-15T17:23:49.072Z,22.60
2022-09-15T17:26:27.583Z,22.30
2022-09-15T17:28:59.568Z,22.10
2022-09-15T17:31:27.829Z,22.10
2022-09-15T17:33:55.984Z,22.40
2022-09-15T17:36:24.229Z,22.60
2022-09-15T17:38:52.372Z,22.80
2022-09-15T17:41:21.688Z,23.00
2022-09-15T17:43:50.922Z,23.10
2022-09-15T17:46:19.371Z,23.10
2022-09-15T17:48:47.524Z,23.20
2022-09-15T17:51:17.054Z,23.30
2022-09-15T17:53:45.743Z,23.50
2022-09-15T17:56:13.655Z,23.10
2022-09-15T17:58:42.004Z,22.50
2022-09-15T18:01:13.798Z,22.30
2022-09-15T18:03:44.647Z,22.10
2022-09-15T18:06:13.057Z,22.20
2022-09-15T18:08:41.203Z,22.50
2022-09-15T18:11:13.644Z,22.80
2022-09-15T18:13:41.860Z,23.00
2022-09-15T18:16:14.901Z,23.10
2022-09-15T18:18:43.481Z,23.20
2022-09-15T18:21:29.239Z,23.50
2022-09-15T18:23:57.656Z,23.30
2022-09-15T18:26:26.827Z,22.90
2022-09-15T18:28:55.449Z,22.70
2022-09-15T18:31:23.913Z,22.80
2022-09-15T18:33:52.263Z,23.10
2022-09-15T18:36:20.387Z,23.40
2022-09-15T18:38:48.609Z,23.60
2022-09-15T18:41:16.935Z,23.30
2022-09-15T18:43:45.283Z,23.00
2022-09-15T18:46:13.758Z,22.80
2022-09-15T18:48:42.358Z,22.80
2022-09-15T18:51:13.839Z,23.10
2022-09-15T18:53:52.056Z,23.30
2022-09-15T18:56:22.347Z,23.60
2022-09-15T18:58:53.991Z,23.30
2022-09-15T19:01:22.573Z,23.00
2022-09-15T19:03:50.686Z,22.80
2022-09-15T19:06:18.865Z,22.80
2022-09-15T19:08:47.118Z,23.10
2022-09-15T19:11:15.466Z,23.40
2022-09-15T19:13:44.372Z,23.70
2022-09-15T19:16:12.329Z,23.50
2022-09-15T19:18:40.640Z,23.00
2022-09-15T19:21:11.098Z,22.80
2022-09-15T19:23:39.579Z,22.80
2022-09-15T19:26:10.613Z,23.00
2022-09-15T19:28:39.051Z,23.40
2022-09-15T19:31:07.406Z,23.70
2022-09-15T19:33:36.067Z,23.60
2022-09-15T19:36:27.056Z,23.20
2022-09-15T19:38:55.020Z,22.90
2022-09-15T19:41:23.285Z,22.80
2022-09-15T19:43:51.507Z,23.00
2022-09-15T19:46:22.346Z,23.30
2022-09-15T19:48:51.706Z,23.40
2022-09-15T19:51:20.596Z,23.50
2022-09-15T19:53:49.213Z,23.30
2022-09-15T19:56:20.460Z,22.80
2022-09-15T19:58:48.924Z,22.60
2022-09-15T20:01:17.456Z,22.40
2022-09-15T20:03:45.988Z,22.40
2022-09-15T20:06:14.340Z,22.40
2022-09-15T20:08:42.448Z,22.60
2022-09-15T20:11:10.798Z,22.80
2022-09-15T20:13:38.881Z,23.00
2022-09-15T20:16:08.178Z,23.20
2022-09-15T20:18:36.391Z,23.20
2022-09-15T20:21:06.891Z,23.20
2022-09-15T20:23:35.688Z,23.30
2022-09-15T20:26:05.382Z,23.40
2022-09-15T20:28:34.250Z,23.40
2022-09-15T20:31:09.598Z,23.20
2022-09-15T20:33:39.516Z,22.80
2022-09-15T20:36:10.789Z,22.50
2022-09-15T20:38:39.693Z,22.30
2022-09-15T20:41:08.509Z,22.20
2022-09-15T20:43:38.381Z,22.40
2022-09-15T20:46:08.878Z,22.70
2022-09-15T20:48:37.848Z,23.00
2022-09-15T20:51:05.916Z,23.20
2022-09-15T20:53:36.071Z,23.20
2022-09-15T20:56:04.881Z,23.30
2022-09-15T20:58:36.248Z,23.30
2022-09-15T21:01:20.721Z,23.40
2022-09-15T21:03:49.070Z,23.50
2022-09-15T21:06:25.428Z,23.00
2022-09-15T21:08:55.334Z,22.70
2022-09-15T21:11:25.323Z,22.40
2022-09-15T21:13:56.619Z,22.20
2022-09-15T21:16:27.908Z,22.30
2022-09-15T21:18:59.966Z,22.60
2022-09-15T21:21:32.351Z,22.80
2022-09-15T21:24:05.967Z,23.00
2022-09-15T21:26:37.186Z,23.20
2022-09-15T21:29:05.365Z,23.30
2022-09-15T21:31:33.845Z,23.30
2022-09-15T21:34:01.995Z,23.40
2022-09-15T21:36:31.563Z,23.40
2022-09-15T21:39:00.347Z,22.90
2022-09-15T21:41:29.569Z,22.50
2022-09-15T21:43:58.318Z,22.30
2022-09-15T21:46:28.719Z,22.20
2022-09-15T21:48:58.645Z,22.20
2022-09-15T21:51:28.372Z,22.40
2022-09-15T21:53:58.711Z,22.70
2022-09-15T21:56:28.680Z,22.80
2022-09-15T21:58:57.312Z,23.00
2022-09-15T22:01:30.569Z,23.10
2022-09-15T22:04:01.117Z,23.20
2022-09-15T22:06:32.221Z,23.20
2022-09-15T22:09:02.014Z,23.30
2022-09-15T22:11:30.402Z,23.40
2022-09-15T22:13:58.578Z,23.20
2022-09-15T22:16:26.866Z,22.70
2022-09-15T22:18:55.698Z,22.40
2022-09-15T22:21:26.341Z,22.30
2022-09-15T22:23:58.560Z,22.20
2022-09-15T22:26:29.878Z,22.30
2022-09-15T22:29:00.324Z,22.60
2022-09-15T22:31:29.582Z,22.80
2022-09-15T22:33:58.086Z,23.00
2022-09-15T22:36:30.006Z,23.10
2022-09-15T22:39:00.202Z,23.20
2022-09-15T22:41:28.452Z,23.20
2022-09-15T22:43:56.703Z,23.30
2022-09-15T22:46:25.064Z,23.40
2022-09-15T22:48:53.351Z,23.00
2022-09-15T22:51:21.705Z,22.50
2022-09-15T22:53:52.871Z,22.30
2022-09-15T22:56:21.300Z,22.10
2022-09-15T22:58:50.427Z,22.10
2022-09-15T23:01:21.239Z,22.30
2022-09-15T23:03:54.048Z,22.60
2022-09-15T23:06:22.819Z,22.90
2022-09-15T23:08:55.688Z,23.00
2022-09-15T23:11:24.987Z,23.10
2022-09-15T23:13:53.786Z,23.20
2022-09-15T23:16:23.780Z,23.20
2022-09-15T23:18:52.749Z,23.30
2022-09-15T23:21:21.930Z,23.30
2022-09-15T23:23:50.545Z,23.00
2022-09-15T23:26:19.425Z,22.50
2022-09-15T23:28:47.362Z,22.20
2022-09-15T23:31:16.151Z,22.10
2022-09-15T23:33:44.484Z,22.10
2022-09-15T23:36:15.603Z,22.40
2022-09-15T23:38:45.902Z,22.60
2022-09-15T23:41:15.335Z,22.90
2022-09-15T23:43:45.343Z,23.00
2022-09-15T23:46:13.833Z,23.10
2022-09-15T23:48:42.227Z,23.20
2022-09-15T23:51:10.747Z,23.20
2022-09-15T23:53:38.904Z,23.30
2022-09-15T23:56:07.419Z,23.30
2022-09-15T23:58:35.739Z,23.10
